Página principal
METAR-TAF:

METAR-TAF

Aeroportos :

Tenerife Sul, Espanha

Aeroporto de Tenerife Sul

latitude: 28-03N, longitude: 016-34W, altura: 64 m

Observação actual do tempo

O boletim foi feito há 32 minutos, às 22:30 UTC
Vento 3 kt de norte, variando entre noroeste e nordeste
Temperatura 17°C
Humidade 48%
Pressão 1023 hPa
Visibilidade 10 km ou mais
sem nuvens abaixo de 1500 metros e sem cumulonimbus

METAR: GCTS 172230Z 36003KT 320V050 CAVOK 17/06 Q1023 NOSIG

Hora: 23:02 (23:02 UTC)

Previsão

O boletim foi feito há 3 horas e 2 minutos, às 20:00 UTC
Previsão válida de 17 às 21 UTC a 18 às 21 UTC
Vento 6 kt de norte
Visibilidade 10 km ou mais
sem nuvens abaixo de 1500 metros e sem cumulonimbus
Probabilidade 30% :
Temporariamente
de 18 às 05 UTC a 18 às 09 UTC
Vento 10 kt de oes-noroeste
Tornando-se
de 18 às 10 UTC a 18 às 12 UTC
Vento 21 kt de este

TAF: GCTS 172000Z 1721/1821 01006KT CAVOK TX22/1814Z TN13/1806Z PROB30 TEMPO 1805/1809 30010KT BECMG 1810/1812 10021KT

Observações e previsões do tempo de mais de 4000 aeroportos (mensagens METAR e TAF).

As estações disponíveis são os pontos amarelos e vermelhos sobre o mapa.

Mova o rato sobre o mapa para ver o nome da estação.

Depois clique no ponto para visualizar as observações e previsões meteorológicas.

Para alterar o mapa : clique nos botões verdes com uma cruz preta para aumentar o zoom; no botão verde com uma pitada de zoom; ou nas setas verdes para mapas adjacentes.


METAR-TAF: